CheckWX is a tool to help pilots better visualize weather data.  It is not intended as a substitute for an official pre-flight weather briefing.

12:20:55 UTC

KBGF METAR
Winchester Municipal Airport
Winchester, Tennessee, USA
Current

46 mins ago

KBGF 221135Z AUTO 00000KT 8SM BKN046 BKN050 OVC065 08/08 A3018 RMK A01
Observed
Feb-22 @ 11:35 UTC
Visibility
8 SM
Flight Rules
VFR
Cloud Levels
  • Broken at 4,600' AGL
  • Broken at 5,000' AGL
  • Overcast at 6,500' AGL
Temperature
C / 46°F
Dewpoint
C / 46°F
Humidity
100%
Altimeter
30.18" Hg
Pressure
1022.02 hPa
Previous

1 hour ago

KBGF 221115Z AUTO 04004KT 6SM BR SCT026 SCT033 OVC043 08/08 A3016 RMK A01
Observed
Feb-22 @ 11:15 UTC
Wind
  • 040° at 4 KTS
Visibility
6 SM
Flight Rules
VFR
Conditions
Mist
Cloud Levels
  • Scattered at 2,600' AGL
  • Scattered at 3,300' AGL
  • Overcast at 4,300' AGL
Temperature
C / 46°F
Dewpoint
C / 46°F
Humidity
100%
Altimeter
30.16" Hg
Pressure
1021.32 hPa
Previous

1 hour ago

KBGF 221055Z AUTO 00000KT 3SM BR BKN027 OVC033 08/08 A3017 RMK A01 P0006
Observed
Feb-22 @ 10:55 UTC
Visibility
3 SM
Flight Rules
MVFR
Conditions
Mist
Cloud Levels
  • Broken at 2,700' AGL
  • Overcast at 3,300' AGL
Temperature
C / 46°F
Dewpoint
C / 46°F
Humidity
100%
Altimeter
30.17" Hg
Pressure
1021.72 hPa
Current Rain
0.06"